sensor_id;sensor_type;location;lat;lon;timestamp;P1;durP1;ratioP1;P2;durP2;ratioP2
73776;SDS011;62088;50.240;2.696;2023-03-01T00:01:37;20.23;;;10.93;;
73776;SDS011;62088;50.240;2.696;2023-03-01T00:04:04;13.57;;;8.73;;
73776;SDS011;62088;50.240;2.696;2023-03-01T00:06:31;21.58;;;10.77;;
73776;SDS011;62088;50.240;2.696;2023-03-01T00:08:58;15.48;;;9.98;;
73776;SDS011;62088;50.240;2.696;2023-03-01T00:11:26;18.63;;;9.70;;
73776;SDS011;62088;50.240;2.696;2023-03-01T00:13:56;16.80;;;9.80;;
73776;SDS011;62088;50.240;2.696;2023-03-01T00:16:29;15.68;;;9.60;;
73776;SDS011;62088;50.240;2.696;2023-03-01T00:19:00;17.25;;;11.30;;
73776;SDS011;62088;50.240;2.696;2023-03-01T00:21:27;16.50;;;9.32;;
73776;SDS011;62088;50.240;2.696;2023-03-01T00:23:54;18.42;;;10.80;;
73776;SDS011;62088;50.240;2.696;2023-03-01T00:26:22;15.27;;;9.80;;
73776;SDS011;62088;50.240;2.696;2023-03-01T00:28:50;16.17;;;10.77;;
73776;SDS011;62088;50.240;2.696;2023-03-01T00:31:19;13.93;;;9.10;;
73776;SDS011;62088;50.240;2.696;2023-03-01T00:33:48;15.88;;;10.07;;
73776;SDS011;62088;50.240;2.696;2023-03-01T00:36:18;20.23;;;12.00;;
73776;SDS011;62088;50.240;2.696;2023-03-01T00:38:46;17.25;;;10.10;;
73776;SDS011;62088;50.240;2.696;2023-03-01T00:41:14;17.33;;;9.93;;
73776;SDS011;62088;50.240;2.696;2023-03-01T00:43:42;15.88;;;10.77;;
73776;SDS011;62088;50.240;2.696;2023-03-01T00:46:11;14.25;;;9.85;;
73776;SDS011;62088;50.240;2.696;2023-03-01T00:48:41;15.18;;;10.05;;
73776;SDS011;62088;50.240;2.696;2023-03-01T00:51:09;18.30;;;10.80;;
73776;SDS011;62088;50.240;2.696;2023-03-01T00:53:38;15.07;;;10.25;;
73776;SDS011;62088;50.240;2.696;2023-03-01T00:56:06;17.60;;;11.75;;
73776;SDS011;62088;50.240;2.696;2023-03-01T00:58:34;18.73;;;11.07;;
73776;SDS011;62088;50.240;2.696;2023-03-01T01:01:06;15.30;;;10.07;;
73776;SDS011;62088;50.240;2.696;2023-03-01T01:03:47;17.42;;;11.40;;
73776;SDS011;62088;50.240;2.696;2023-03-01T01:06:26;16.75;;;12.00;;
73776;SDS011;62088;50.240;2.696;2023-03-01T01:08:57;17.25;;;11.50;;
73776;SDS011;62088;50.240;2.696;2023-03-01T01:11:25;21.10;;;12.00;;
73776;SDS011;62088;50.240;2.696;2023-03-01T01:13:54;16.55;;;11.02;;
73776;SDS011;62088;50.240;2.696;2023-03-01T01:16:23;18.33;;;12.07;;
73776;SDS011;62088;50.240;2.696;2023-03-01T01:18:52;19.63;;;12.93;;
73776;SDS011;62088;50.240;2.696;2023-03-01T01:21:20;16.20;;;11.70;;
73776;SDS011;62088;50.240;2.696;2023-03-01T01:23:49;20.55;;;11.93;;
73776;SDS011;62088;50.240;2.696;2023-03-01T01:26:21;20.15;;;11.70;;
73776;SDS011;62088;50.240;2.696;2023-03-01T01:28:50;17.60;;;11.15;;
73776;SDS011;62088;50.240;2.696;2023-03-01T01:31:17;18.13;;;11.07;;
73776;SDS011;62088;50.240;2.696;2023-03-01T01:33:45;17.27;;;11.57;;
73776;SDS011;62088;50.240;2.696;2023-03-01T01:36:12;19.38;;;12.45;;
73776;SDS011;62088;50.240;2.696;2023-03-01T01:38:39;14.63;;;10.20;;
73776;SDS011;62088;50.240;2.696;2023-03-01T01:41:09;18.10;;;11.82;;
73776;SDS011;62088;50.240;2.696;2023-03-01T01:43:42;17.48;;;12.02;;
73776;SDS011;62088;50.240;2.696;2023-03-01T01:48:52;18.17;;;11.82;;
73776;SDS011;62088;50.240;2.696;2023-03-01T01:51:23;15.30;;;10.40;;
73776;SDS011;62088;50.240;2.696;2023-03-01T01:54:19;18.23;;;12.27;;
73776;SDS011;62088;50.240;2.696;2023-03-01T01:56:59;18.65;;;12.13;;
73776;SDS011;62088;50.240;2.696;2023-03-01T01:59:30;18.63;;;11.18;;
73776;SDS011;62088;50.240;2.696;2023-03-01T02:01:59;20.42;;;12.95;;
73776;SDS011;62088;50.240;2.696;2023-03-01T02:04:30;16.90;;;10.77;;
73776;SDS011;62088;50.240;2.696;2023-03-01T02:07:03;21.42;;;12.35;;
73776;SDS011;62088;50.240;2.696;2023-03-01T02:09:42;15.93;;;10.45;;
73776;SDS011;62088;50.240;2.696;2023-03-01T02:12:13;18.63;;;11.65;;
73776;SDS011;62088;50.240;2.696;2023-03-01T02:14:41;19.95;;;11.43;;
73776;SDS011;62088;50.240;2.696;2023-03-01T02:17:09;18.80;;;11.52;;
73776;SDS011;62088;50.240;2.696;2023-03-01T02:19:44;20.58;;;12.02;;
73776;SDS011;62088;50.240;2.696;2023-03-01T02:22:24;16.92;;;11.38;;
73776;SDS011;62088;50.240;2.696;2023-03-01T02:30:21;16.85;;;10.15;;
73776;SDS011;62088;50.240;2.696;2023-03-01T02:32:49;18.83;;;11.05;;
73776;SDS011;62088;50.240;2.696;2023-03-01T02:35:17;17.65;;;10.63;;
73776;SDS011;62088;50.240;2.696;2023-03-01T02:37:45;16.30;;;10.77;;
73776;SDS011;62088;50.240;2.696;2023-03-01T02:40:15;18.23;;;11.95;;
73776;SDS011;62088;50.240;2.696;2023-03-01T02:42:47;23.40;;;12.10;;
73776;SDS011;62088;50.240;2.696;2023-03-01T02:45:20;22.50;;;11.50;;
73776;SDS011;62088;50.240;2.696;2023-03-01T02:47:47;14.75;;;10.77;;
73776;SDS011;62088;50.240;2.696;2023-03-01T02:55:37;15.43;;;10.60;;
73776;SDS011;62088;50.240;2.696;2023-03-01T02:58:05;17.77;;;10.57;;
73776;SDS011;62088;50.240;2.696;2023-03-01T03:00:37;15.82;;;10.15;;
73776;SDS011;62088;50.240;2.696;2023-03-01T03:03:14;16.42;;;10.02;;
73776;SDS011;62088;50.240;2.696;2023-03-01T03:05:42;14.65;;;9.95;;
73776;SDS011;62088;50.240;2.696;2023-03-01T03:08:10;14.25;;;9.38;;
73776;SDS011;62088;50.240;2.696;2023-03-01T03:10:39;14.63;;;8.93;;
73776;SDS011;62088;50.240;2.696;2023-03-01T03:13:11;14.85;;;9.50;;
73776;SDS011;62088;50.240;2.696;2023-03-01T03:15:41;16.80;;;9.73;;
73776;SDS011;62088;50.240;2.696;2023-03-01T03:18:11;14.48;;;9.65;;
73776;SDS011;62088;50.240;2.696;2023-03-01T03:20:41;17.48;;;9.60;;
73776;SDS011;62088;50.240;2.696;2023-03-01T03:23:09;16.17;;;10.07;;
73776;SDS011;62088;50.240;2.696;2023-03-01T03:25:36;15.07;;;9.40;;
73776;SDS011;62088;50.240;2.696;2023-03-01T03:28:04;20.92;;;10.05;;
73776;SDS011;62088;50.240;2.696;2023-03-01T03:30:37;14.30;;;10.07;;
73776;SDS011;62088;50.240;2.696;2023-03-01T03:33:06;14.77;;;9.00;;
73776;SDS011;62088;50.240;2.696;2023-03-01T03:35:38;16.25;;;9.68;;
73776;SDS011;62088;50.240;2.696;2023-03-01T03:38:10;18.65;;;9.65;;
73776;SDS011;62088;50.240;2.696;2023-03-01T03:40:47;13.20;;;8.90;;
73776;SDS011;62088;50.240;2.696;2023-03-01T03:43:17;13.57;;;8.32;;
73776;SDS011;62088;50.240;2.696;2023-03-01T03:45:49;20.73;;;9.30;;
73776;SDS011;62088;50.240;2.696;2023-03-01T03:48:17;17.52;;;10.48;;
73776;SDS011;62088;50.240;2.696;2023-03-01T03:50:48;16.73;;;9.88;;
73776;SDS011;62088;50.240;2.696;2023-03-01T03:53:17;15.23;;;8.35;;
73776;SDS011;62088;50.240;2.696;2023-03-01T03:55:45;13.55;;;8.50;;
73776;SDS011;62088;50.240;2.696;2023-03-01T03:58:16;14.63;;;9.10;;
73776;SDS011;62088;50.240;2.696;2023-03-01T04:00:46;17.00;;;10.15;;
73776;SDS011;62088;50.240;2.696;2023-03-01T04:03:15;16.08;;;9.73;;
73776;SDS011;62088;50.240;2.696;2023-03-01T04:05:45;15.52;;;8.95;;
73776;SDS011;62088;50.240;2.696;2023-03-01T04:08:13;16.73;;;9.55;;
73776;SDS011;62088;50.240;2.696;2023-03-01T04:10:41;16.23;;;9.45;;
73776;SDS011;62088;50.240;2.696;2023-03-01T04:13:11;14.30;;;9.20;;
73776;SDS011;62088;50.240;2.696;2023-03-01T04:15:40;12.90;;;8.57;;
73776;SDS011;62088;50.240;2.696;2023-03-01T04:18:11;14.40;;;8.52;;
73776;SDS011;62088;50.240;2.696;2023-03-01T04:20:39;13.23;;;8.20;;
73776;SDS011;62088;50.240;2.696;2023-03-01T04:23:09;15.55;;;9.20;;
73776;SDS011;62088;50.240;2.696;2023-03-01T04:25:45;13.52;;;8.85;;
73776;SDS011;62088;50.240;2.696;2023-03-01T04:28:22;17.35;;;9.60;;
73776;SDS011;62088;50.240;2.696;2023-03-01T04:30:51;14.20;;;8.57;;
73776;SDS011;62088;50.240;2.696;2023-03-01T04:33:19;14.77;;;9.52;;
73776;SDS011;62088;50.240;2.696;2023-03-01T04:35:47;14.20;;;9.23;;
73776;SDS011;62088;50.240;2.696;2023-03-01T04:38:17;16.08;;;9.27;;
73776;SDS011;62088;50.240;2.696;2023-03-01T04:40:45;13.65;;;9.48;;
73776;SDS011;62088;50.240;2.696;2023-03-01T04:43:12;11.38;;;7.95;;
73776;SDS011;62088;50.240;2.696;2023-03-01T04:45:43;13.75;;;9.25;;
73776;SDS011;62088;50.240;2.696;2023-03-01T04:48:10;16.50;;;8.98;;
73776;SDS011;62088;50.240;2.696;2023-03-01T04:50:37;15.75;;;9.38;;
73776;SDS011;62088;50.240;2.696;2023-03-01T04:53:04;13.90;;;9.63;;
73776;SDS011;62088;50.240;2.696;2023-03-01T04:55:31;14.98;;;10.20;;
73776;SDS011;62088;50.240;2.696;2023-03-01T04:57:58;16.90;;;9.68;;
73776;SDS011;62088;50.240;2.696;2023-03-01T05:00:25;21.55;;;10.20;;
73776;SDS011;62088;50.240;2.696;2023-03-01T05:02:53;16.42;;;9.75;;
73776;SDS011;62088;50.240;2.696;2023-03-01T05:05:24;12.07;;;8.25;;
73776;SDS011;62088;50.240;2.696;2023-03-01T05:10:26;16.27;;;8.98;;
73776;SDS011;62088;50.240;2.696;2023-03-01T05:12:55;12.95;;;8.40;;
73776;SDS011;62088;50.240;2.696;2023-03-01T05:15:26;15.52;;;9.80;;
73776;SDS011;62088;50.240;2.696;2023-03-01T05:17:56;15.30;;;9.75;;
73776;SDS011;62088;50.240;2.696;2023-03-01T05:20:29;14.23;;;8.75;;
73776;SDS011;62088;50.240;2.696;2023-03-01T05:22:57;16.52;;;9.57;;
73776;SDS011;62088;50.240;2.696;2023-03-01T05:25:26;13.35;;;8.82;;
73776;SDS011;62088;50.240;2.696;2023-03-01T05:27:53;14.68;;;9.88;;
73776;SDS011;62088;50.240;2.696;2023-03-01T05:30:20;15.38;;;10.00;;
73776;SDS011;62088;50.240;2.696;2023-03-01T05:32:49;16.27;;;9.35;;
73776;SDS011;62088;50.240;2.696;2023-03-01T05:35:22;13.80;;;10.00;;
73776;SDS011;62088;50.240;2.696;2023-03-01T05:37:50;15.00;;;10.25;;
73776;SDS011;62088;50.240;2.696;2023-03-01T05:40:18;13.43;;;9.23;;
73776;SDS011;62088;50.240;2.696;2023-03-01T05:42:49;14.80;;;10.48;;
73776;SDS011;62088;50.240;2.696;2023-03-01T05:45:20;15.70;;;9.93;;
73776;SDS011;62088;50.240;2.696;2023-03-01T05:47:49;15.30;;;11.27;;
73776;SDS011;62088;50.240;2.696;2023-03-01T05:50:18;14.48;;;9.98;;
73776;SDS011;62088;50.240;2.696;2023-03-01T05:52:47;13.85;;;9.38;;
73776;SDS011;62088;50.240;2.696;2023-03-01T05:55:16;14.27;;;9.32;;
73776;SDS011;62088;50.240;2.696;2023-03-01T05:57:44;15.05;;;9.88;;
73776;SDS011;62088;50.240;2.696;2023-03-01T06:00:12;15.27;;;10.07;;
73776;SDS011;62088;50.240;2.696;2023-03-01T06:02:40;17.85;;;10.98;;
73776;SDS011;62088;50.240;2.696;2023-03-01T06:05:08;17.00;;;10.35;;
73776;SDS011;62088;50.240;2.696;2023-03-01T06:07:36;14.70;;;9.57;;
73776;SDS011;62088;50.240;2.696;2023-03-01T06:10:04;20.30;;;12.15;;
73776;SDS011;62088;50.240;2.696;2023-03-01T06:12:33;18.40;;;11.63;;
73776;SDS011;62088;50.240;2.696;2023-03-01T06:15:02;16.83;;;10.93;;
73776;SDS011;62088;50.240;2.696;2023-03-01T06:17:30;17.30;;;11.30;;
73776;SDS011;62088;50.240;2.696;2023-03-01T06:19:58;16.35;;;10.23;;
73776;SDS011;62088;50.240;2.696;2023-03-01T06:22:26;15.50;;;11.10;;
73776;SDS011;62088;50.240;2.696;2023-03-01T06:24:53;26.08;;;11.40;;
73776;SDS011;62088;50.240;2.696;2023-03-01T06:27:20;20.40;;;12.35;;
73776;SDS011;62088;50.240;2.696;2023-03-01T06:29:47;17.42;;;11.75;;
73776;SDS011;62088;50.240;2.696;2023-03-01T06:32:15;18.48;;;11.55;;
73776;SDS011;62088;50.240;2.696;2023-03-01T06:34:42;16.30;;;10.77;;
73776;SDS011;62088;50.240;2.696;2023-03-01T06:37:09;15.25;;;10.75;;
73776;SDS011;62088;50.240;2.696;2023-03-01T06:39:36;19.95;;;11.45;;
73776;SDS011;62088;50.240;2.696;2023-03-01T06:42:03;18.55;;;12.13;;
73776;SDS011;62088;50.240;2.696;2023-03-01T06:44:31;21.85;;;11.68;;
73776;SDS011;62088;50.240;2.696;2023-03-01T06:46:57;22.50;;;13.50;;
73776;SDS011;62088;50.240;2.696;2023-03-01T06:49:25;16.92;;;10.48;;
73776;SDS011;62088;50.240;2.696;2023-03-01T06:51:52;17.58;;;10.00;;
73776;SDS011;62088;50.240;2.696;2023-03-01T06:54:19;19.63;;;11.15;;
73776;SDS011;62088;50.240;2.696;2023-03-01T06:56:48;16.13;;;10.98;;
73776;SDS011;62088;50.240;2.696;2023-03-01T06:59:17;19.15;;;13.07;;
73776;SDS011;62088;50.240;2.696;2023-03-01T07:01:44;18.67;;;12.38;;
73776;SDS011;62088;50.240;2.696;2023-03-01T07:04:12;16.55;;;11.10;;
73776;SDS011;62088;50.240;2.696;2023-03-01T07:06:39;18.15;;;12.25;;
73776;SDS011;62088;50.240;2.696;2023-03-01T07:09:06;28.02;;;13.23;;
73776;SDS011;62088;50.240;2.696;2023-03-01T07:11:33;21.23;;;12.05;;
73776;SDS011;62088;50.240;2.696;2023-03-01T07:14:00;18.15;;;11.15;;
73776;SDS011;62088;50.240;2.696;2023-03-01T07:16:27;23.27;;;13.23;;
73776;SDS011;62088;50.240;2.696;2023-03-01T07:18:55;29.17;;;15.30;;
73776;SDS011;62088;50.240;2.696;2023-03-01T07:21:24;22.63;;;14.52;;
73776;SDS011;62088;50.240;2.696;2023-03-01T07:23:51;21.35;;;13.38;;
73776;SDS011;62088;50.240;2.696;2023-03-01T07:26:18;19.08;;;13.07;;
73776;SDS011;62088;50.240;2.696;2023-03-01T07:28:45;24.40;;;15.05;;
73776;SDS011;62088;50.240;2.696;2023-03-01T07:31:12;26.05;;;15.65;;
73776;SDS011;62088;50.240;2.696;2023-03-01T07:33:39;20.38;;;12.80;;
73776;SDS011;62088;50.240;2.696;2023-03-01T07:36:07;36.63;;;15.93;;
73776;SDS011;62088;50.240;2.696;2023-03-01T07:38:35;32.97;;;18.38;;
73776;SDS011;62088;50.240;2.696;2023-03-01T07:41:02;24.98;;;15.23;;
73776;SDS011;62088;50.240;2.696;2023-03-01T07:43:30;27.45;;;18.08;;
73776;SDS011;62088;50.240;2.696;2023-03-01T07:45:58;23.92;;;16.42;;
73776;SDS011;62088;50.240;2.696;2023-03-01T07:48:27;23.83;;;16.58;;
73776;SDS011;62088;50.240;2.696;2023-03-01T07:50:59;26.45;;;17.58;;
73776;SDS011;62088;50.240;2.696;2023-03-01T07:53:31;28.50;;;18.90;;
73776;SDS011;62088;50.240;2.696;2023-03-01T07:56:07;28.20;;;16.77;;
73776;SDS011;62088;50.240;2.696;2023-03-01T07:58:37;33.58;;;17.83;;
73776;SDS011;62088;50.240;2.696;2023-03-01T08:01:06;25.88;;;17.40;;
73776;SDS011;62088;50.240;2.696;2023-03-01T08:03:34;26.25;;;15.30;;
73776;SDS011;62088;50.240;2.696;2023-03-01T08:06:03;30.42;;;16.02;;
73776;SDS011;62088;50.240;2.696;2023-03-01T08:08:32;27.80;;;16.63;;
73776;SDS011;62088;50.240;2.696;2023-03-01T08:10:59;31.58;;;16.73;;
73776;SDS011;62088;50.240;2.696;2023-03-01T08:13:28;24.48;;;15.80;;
73776;SDS011;62088;50.240;2.696;2023-03-01T08:16:00;23.55;;;15.05;;
73776;SDS011;62088;50.240;2.696;2023-03-01T08:18:30;24.17;;;15.35;;
73776;SDS011;62088;50.240;2.696;2023-03-01T08:21:07;24.00;;;14.98;;
73776;SDS011;62088;50.240;2.696;2023-03-01T08:23:36;26.33;;;15.77;;
73776;SDS011;62088;50.240;2.696;2023-03-01T08:26:06;24.23;;;14.48;;
73776;SDS011;62088;50.240;2.696;2023-03-01T08:28:35;22.58;;;16.25;;
73776;SDS011;62088;50.240;2.696;2023-03-01T08:31:02;20.55;;;14.20;;
73776;SDS011;62088;50.240;2.696;2023-03-01T08:33:39;22.75;;;15.55;;
73776;SDS011;62088;50.240;2.696;2023-03-01T08:36:06;24.55;;;15.48;;
73776;SDS011;62088;50.240;2.696;2023-03-01T08:38:34;21.90;;;15.82;;
73776;SDS011;62088;50.240;2.696;2023-03-01T08:41:02;22.20;;;15.07;;
73776;SDS011;62088;50.240;2.696;2023-03-01T08:43:30;25.48;;;15.75;;
73776;SDS011;62088;50.240;2.696;2023-03-01T08:45:57;26.63;;;15.43;;
73776;SDS011;62088;50.240;2.696;2023-03-01T08:48:24;26.33;;;14.98;;
73776;SDS011;62088;50.240;2.696;2023-03-01T08:50:51;20.85;;;14.60;;
73776;SDS011;62088;50.240;2.696;2023-03-01T08:53:18;20.60;;;14.25;;
73776;SDS011;62088;50.240;2.696;2023-03-01T08:55:45;22.50;;;15.10;;
73776;SDS011;62088;50.240;2.696;2023-03-01T08:58:15;29.55;;;14.77;;
73776;SDS011;62088;50.240;2.696;2023-03-01T09:00:42;20.52;;;15.40;;
73776;SDS011;62088;50.240;2.696;2023-03-01T09:03:09;23.63;;;14.93;;
73776;SDS011;62088;50.240;2.696;2023-03-01T09:05:36;24.35;;;15.48;;
73776;SDS011;62088;50.240;2.696;2023-03-01T09:08:03;24.58;;;14.23;;
73776;SDS011;62088;50.240;2.696;2023-03-01T09:10:30;24.65;;;15.65;;
73776;SDS011;62088;50.240;2.696;2023-03-01T09:12:57;19.63;;;13.80;;
73776;SDS011;62088;50.240;2.696;2023-03-01T09:15:25;23.75;;;14.70;;
73776;SDS011;62088;50.240;2.696;2023-03-01T09:17:51;24.38;;;15.15;;
73776;SDS011;62088;50.240;2.696;2023-03-01T09:20:18;20.70;;;14.70;;
73776;SDS011;62088;50.240;2.696;2023-03-01T09:22:46;20.40;;;12.65;;
73776;SDS011;62088;50.240;2.696;2023-03-01T09:25:13;18.95;;;13.35;;
73776;SDS011;62088;50.240;2.696;2023-03-01T09:27:40;24.20;;;15.65;;
73776;SDS011;62088;50.240;2.696;2023-03-01T09:30:07;22.13;;;15.18;;
73776;SDS011;62088;50.240;2.696;2023-03-01T09:32:35;17.70;;;12.32;;
73776;SDS011;62088;50.240;2.696;2023-03-01T09:35:02;18.60;;;13.05;;
73776;SDS011;62088;50.240;2.696;2023-03-01T09:37:32;19.85;;;12.13;;
73776;SDS011;62088;50.240;2.696;2023-03-01T09:40:00;17.30;;;11.52;;
73776;SDS011;62088;50.240;2.696;2023-03-01T09:42:28;21.77;;;11.35;;
73776;SDS011;62088;50.240;2.696;2023-03-01T09:44:58;20.35;;;13.60;;
73776;SDS011;62088;50.240;2.696;2023-03-01T09:47:37;25.42;;;15.73;;
73776;SDS011;62088;50.240;2.696;2023-03-01T09:50:06;17.95;;;13.60;;
73776;SDS011;62088;50.240;2.696;2023-03-01T09:52:40;16.73;;;11.90;;
73776;SDS011;62088;50.240;2.696;2023-03-01T09:55:12;19.80;;;12.27;;
73776;SDS011;62088;50.240;2.696;2023-03-01T09:57:49;16.05;;;11.43;;
73776;SDS011;62088;50.240;2.696;2023-03-01T10:00:23;19.02;;;12.02;;
73776;SDS011;62088;50.240;2.696;2023-03-01T10:08:30;19.17;;;12.07;;
73776;SDS011;62088;50.240;2.696;2023-03-01T10:11:05;31.17;;;13.27;;
73776;SDS011;62088;50.240;2.696;2023-03-01T10:13:52;18.08;;;12.45;;
73776;SDS011;62088;50.240;2.696;2023-03-01T10:16:36;21.60;;;13.90;;
73776;SDS011;62088;50.240;2.696;2023-03-01T10:19:16;21.20;;;13.52;;
73776;SDS011;62088;50.240;2.696;2023-03-01T10:21:53;18.95;;;12.45;;
73776;SDS011;62088;50.240;2.696;2023-03-01T10:24:23;23.05;;;10.40;;
73776;SDS011;62088;50.240;2.696;2023-03-01T10:26:53;17.67;;;10.65;;
73776;SDS011;62088;50.240;2.696;2023-03-01T10:32:39;23.25;;;11.45;;
73776;SDS011;62088;50.240;2.696;2023-03-01T10:35:26;17.52;;;11.75;;
73776;SDS011;62088;50.240;2.696;2023-03-01T10:38:00;15.93;;;11.18;;
73776;SDS011;62088;50.240;2.696;2023-03-01T10:40:29;17.55;;;12.20;;
73776;SDS011;62088;50.240;2.696;2023-03-01T10:42:59;18.23;;;11.05;;
73776;SDS011;62088;50.240;2.696;2023-03-01T10:45:33;20.02;;;11.98;;
73776;SDS011;62088;50.240;2.696;2023-03-01T10:48:17;18.95;;;11.85;;
73776;SDS011;62088;50.240;2.696;2023-03-01T10:50:51;19.80;;;12.07;;
73776;SDS011;62088;50.240;2.696;2023-03-01T10:58:41;16.50;;;11.48;;
73776;SDS011;62088;50.240;2.696;2023-03-01T11:01:28;14.50;;;10.93;;
73776;SDS011;62088;50.240;2.696;2023-03-01T11:06:35;16.45;;;11.88;;
73776;SDS011;62088;50.240;2.696;2023-03-01T11:09:14;17.15;;;12.07;;
73776;SDS011;62088;50.240;2.696;2023-03-01T11:11:42;19.02;;;11.70;;
73776;SDS011;62088;50.240;2.696;2023-03-01T11:22:43;16.55;;;10.70;;
73776;SDS011;62088;50.240;2.696;2023-03-01T11:25:24;14.63;;;9.85;;
73776;SDS011;62088;50.240;2.696;2023-03-01T11:27:54;17.65;;;10.35;;
73776;SDS011;62088;50.240;2.696;2023-03-01T11:30:25;16.35;;;10.00;;
73776;SDS011;62088;50.240;2.696;2023-03-01T11:35:35;14.57;;;10.32;;
73776;SDS011;62088;50.240;2.696;2023-03-01T11:38:14;16.73;;;10.88;;
73776;SDS011;62088;50.240;2.696;2023-03-01T11:51:42;16.52;;;10.25;;
73776;SDS011;62088;50.240;2.696;2023-03-01T12:14:07;16.02;;;9.63;;
73776;SDS011;62088;50.240;2.696;2023-03-01T12:22:21;17.52;;;9.68;;
73776;SDS011;62088;50.240;2.696;2023-03-01T12:25:13;14.32;;;9.38;;
73776;SDS011;62088;50.240;2.696;2023-03-01T12:28:04;12.68;;;8.85;;
73776;SDS011;62088;50.240;2.696;2023-03-01T12:45:12;14.82;;;9.10;;
73776;SDS011;62088;50.240;2.696;2023-03-01T12:50:11;14.70;;;9.02;;
73776;SDS011;62088;50.240;2.696;2023-03-01T12:55:36;12.95;;;9.18;;
73776;SDS011;62088;50.240;2.696;2023-03-01T13:06:24;10.73;;;8.30;;
73776;SDS011;62088;50.240;2.696;2023-03-01T13:11:54;25.90;;;17.30;;
73776;SDS011;62088;50.240;2.696;2023-03-01T13:16:49;14.98;;;9.10;;
73776;SDS011;62088;50.240;2.696;2023-03-01T13:19:20;26.48;;;13.98;;
73776;SDS011;62088;50.240;2.696;2023-03-01T13:21:50;16.05;;;9.45;;
73776;SDS011;62088;50.240;2.696;2023-03-01T13:24:39;17.20;;;9.80;;
73776;SDS011;62088;50.240;2.696;2023-03-01T13:29:48;15.60;;;9.60;;
73776;SDS011;62088;50.240;2.696;2023-03-01T13:32:28;14.25;;;8.48;;
73776;SDS011;62088;50.240;2.696;2023-03-01T13:37:45;11.52;;;8.32;;
73776;SDS011;62088;50.240;2.696;2023-03-01T13:42:45;12.15;;;9.50;;
73776;SDS011;62088;50.240;2.696;2023-03-01T13:45:38;13.30;;;9.57;;
73776;SDS011;62088;50.240;2.696;2023-03-01T13:53:44;16.77;;;9.75;;
73776;SDS011;62088;50.240;2.696;2023-03-01T13:56:15;17.80;;;8.93;;
73776;SDS011;62088;50.240;2.696;2023-03-01T13:58:49;13.05;;;9.57;;
73776;SDS011;62088;50.240;2.696;2023-03-01T14:01:23;11.65;;;8.20;;
73776;SDS011;62088;50.240;2.696;2023-03-01T14:03:59;14.43;;;9.10;;
73776;SDS011;62088;50.240;2.696;2023-03-01T14:06:31;16.05;;;10.23;;
73776;SDS011;62088;50.240;2.696;2023-03-01T14:09:18;14.57;;;10.27;;
73776;SDS011;62088;50.240;2.696;2023-03-01T14:20:07;15.90;;;9.70;;
73776;SDS011;62088;50.240;2.696;2023-03-01T14:22:40;15.93;;;11.48;;
73776;SDS011;62088;50.240;2.696;2023-03-01T14:25:22;12.23;;;8.65;;
73776;SDS011;62088;50.240;2.696;2023-03-01T14:28:12;15.20;;;8.82;;
73776;SDS011;62088;50.240;2.696;2023-03-01T14:30:45;17.42;;;9.07;;
73776;SDS011;62088;50.240;2.696;2023-03-01T14:33:18;15.63;;;8.88;;
73776;SDS011;62088;50.240;2.696;2023-03-01T14:38:31;14.07;;;8.80;;
73776;SDS011;62088;50.240;2.696;2023-03-01T14:43:34;11.30;;;8.93;;
73776;SDS011;62088;50.240;2.696;2023-03-01T14:46:02;11.25;;;7.85;;
73776;SDS011;62088;50.240;2.696;2023-03-01T14:48:29;14.82;;;10.00;;
73776;SDS011;62088;50.240;2.696;2023-03-01T14:50:58;13.52;;;8.90;;
73776;SDS011;62088;50.240;2.696;2023-03-01T14:53:27;10.27;;;8.07;;
73776;SDS011;62088;50.240;2.696;2023-03-01T14:56:03;13.25;;;7.63;;
73776;SDS011;62088;50.240;2.696;2023-03-01T14:58:31;15.90;;;8.77;;
73776;SDS011;62088;50.240;2.696;2023-03-01T15:01:00;13.43;;;7.97;;
73776;SDS011;62088;50.240;2.696;2023-03-01T15:03:36;11.27;;;7.95;;
73776;SDS011;62088;50.240;2.696;2023-03-01T15:06:07;12.27;;;9.05;;
73776;SDS011;62088;50.240;2.696;2023-03-01T15:08:35;13.55;;;9.18;;
73776;SDS011;62088;50.240;2.696;2023-03-01T15:13:40;11.70;;;8.43;;
73776;SDS011;62088;50.240;2.696;2023-03-01T15:16:11;12.77;;;8.73;;
73776;SDS011;62088;50.240;2.696;2023-03-01T15:18:49;11.38;;;8.73;;
73776;SDS011;62088;50.240;2.696;2023-03-01T15:21:22;13.43;;;8.18;;
73776;SDS011;62088;50.240;2.696;2023-03-01T15:23:58;10.10;;;7.95;;
73776;SDS011;62088;50.240;2.696;2023-03-01T15:26:42;13.98;;;8.60;;
73776;SDS011;62088;50.240;2.696;2023-03-01T15:29:15;11.50;;;8.23;;
73776;SDS011;62088;50.240;2.696;2023-03-01T15:31:58;16.10;;;8.45;;
73776;SDS011;62088;50.240;2.696;2023-03-01T15:34:28;11.63;;;7.78;;
73776;SDS011;62088;50.240;2.696;2023-03-01T15:36:56;11.10;;;8.40;;
73776;SDS011;62088;50.240;2.696;2023-03-01T15:41:59;14.30;;;7.65;;
73776;SDS011;62088;50.240;2.696;2023-03-01T15:44:30;13.57;;;7.70;;
73776;SDS011;62088;50.240;2.696;2023-03-01T15:47:22;11.50;;;7.35;;
73776;SDS011;62088;50.240;2.696;2023-03-01T15:49:51;15.20;;;6.28;;
73776;SDS011;62088;50.240;2.696;2023-03-01T15:52:23;13.30;;;7.72;;
73776;SDS011;62088;50.240;2.696;2023-03-01T15:55:06;11.50;;;7.72;;
73776;SDS011;62088;50.240;2.696;2023-03-01T15:57:49;14.38;;;7.80;;
73776;SDS011;62088;50.240;2.696;2023-03-01T16:00:16;9.77;;;7.28;;
73776;SDS011;62088;50.240;2.696;2023-03-01T16:02:44;12.73;;;7.43;;
73776;SDS011;62088;50.240;2.696;2023-03-01T16:05:19;12.85;;;7.60;;
73776;SDS011;62088;50.240;2.696;2023-03-01T16:07:46;12.15;;;7.57;;
73776;SDS011;62088;50.240;2.696;2023-03-01T16:10:13;12.85;;;7.07;;
73776;SDS011;62088;50.240;2.696;2023-03-01T16:12:40;10.27;;;7.32;;
73776;SDS011;62088;50.240;2.696;2023-03-01T16:15:15;11.95;;;6.70;;
73776;SDS011;62088;50.240;2.696;2023-03-01T16:17:44;13.18;;;7.05;;
73776;SDS011;62088;50.240;2.696;2023-03-01T16:20:20;10.60;;;7.07;;
73776;SDS011;62088;50.240;2.696;2023-03-01T16:22:58;14.43;;;6.60;;
73776;SDS011;62088;50.240;2.696;2023-03-01T16:25:26;10.23;;;6.95;;
73776;SDS011;62088;50.240;2.696;2023-03-01T16:27:54;11.35;;;7.07;;
73776;SDS011;62088;50.240;2.696;2023-03-01T16:30:24;11.35;;;7.63;;
73776;SDS011;62088;50.240;2.696;2023-03-01T16:32:52;9.75;;;6.18;;
73776;SDS011;62088;50.240;2.696;2023-03-01T16:35:20;10.75;;;6.70;;
73776;SDS011;62088;50.240;2.696;2023-03-01T16:37:47;10.70;;;6.57;;
73776;SDS011;62088;50.240;2.696;2023-03-01T16:40:19;11.88;;;7.07;;
73776;SDS011;62088;50.240;2.696;2023-03-01T16:42:49;14.82;;;7.82;;
73776;SDS011;62088;50.240;2.696;2023-03-01T16:45:17;13.98;;;6.75;;
73776;SDS011;62088;50.240;2.696;2023-03-01T16:47:50;16.33;;;7.90;;
73776;SDS011;62088;50.240;2.696;2023-03-01T16:50:21;10.18;;;7.30;;
73776;SDS011;62088;50.240;2.696;2023-03-01T16:52:48;19.67;;;7.35;;
73776;SDS011;62088;50.240;2.696;2023-03-01T16:55:16;11.32;;;7.00;;
73776;SDS011;62088;50.240;2.696;2023-03-01T16:57:43;10.00;;;6.75;;
73776;SDS011;62088;50.240;2.696;2023-03-01T17:00:10;12.77;;;6.20;;
73776;SDS011;62088;50.240;2.696;2023-03-01T17:02:40;13.90;;;7.15;;
73776;SDS011;62088;50.240;2.696;2023-03-01T17:05:08;10.40;;;6.75;;
73776;SDS011;62088;50.240;2.696;2023-03-01T17:07:36;11.98;;;6.25;;
73776;SDS011;62088;50.240;2.696;2023-03-01T17:10:04;11.68;;;6.65;;
73776;SDS011;62088;50.240;2.696;2023-03-01T17:12:34;9.40;;;6.32;;
73776;SDS011;62088;50.240;2.696;2023-03-01T17:15:02;12.75;;;7.22;;